Time;durP1;ratioP1;P1;durP2;ratioP2;P2;SDS_P1;SDS_P2;PMS_P1;PMS_P2;Temp;Humidity;BMP_temperature;BMP_pressure;BME280_temperature;BME280_humidity;BME280_pressure;Samples;Min_cycle;Max_cycle;Signal;HPM_P1;HPM_P2
2023/03/14 00:00:58;;;;;;;12.73;6.35;;;;;;;9.96;100.00;100236.22;5043764;28;20029;-76
2023/03/14 00:03:24;;;;;;;15.10;6.65;;;;;;;9.91;100.00;100232.44;5041911;28;20029;-76
2023/03/14 00:05:49;;;;;;;12.70;7.28;;;;;;;9.87;100.00;100231.09;5038499;28;20103;-76
2023/03/14 00:08:15;;;;;;;8.98;6.85;;;;;;;9.85;100.00;100228.63;5044988;28;20119;-75
2023/03/14 00:10:41;;;;;;;15.02;7.40;;;;;;;9.84;100.00;100218.38;5043670;28;20038;-76
2023/03/14 00:13:06;;;;;;;13.45;9.48;;;;;;;9.80;100.00;100210.03;5035352;28;20040;-75
2023/03/14 00:15:33;;;;;;;13.80;8.38;;;;;;;9.74;100.00;100208.00;5055884;28;20040;-75
2023/03/14 00:17:59;;;;;;;13.52;7.38;;;;;;;9.69;100.00;100206.81;5033997;28;20816;-75
2023/03/14 00:20:24;;;;;;;12.98;8.20;;;;;;;9.68;100.00;100202.56;5046710;28;20037;-75
2023/03/14 00:22:50;;;;;;;16.90;8.18;;;;;;;9.69;100.00;100199.00;5047715;28;20021;-75
2023/03/14 00:25:15;;;;;;;17.08;8.07;;;;;;;9.64;100.00;100189.03;5043891;28;20504;-75
2023/03/14 00:27:41;;;;;;;14.95;9.30;;;;;;;9.58;100.00;100177.44;5046602;28;20535;-76
2023/03/14 00:30:07;;;;;;;14.10;9.90;;;;;;;9.49;100.00;100180.88;5051449;28;20055;-75
2023/03/14 00:32:33;;;;;;;12.57;8.65;;;;;;;9.48;100.00;100174.03;5034564;28;20094;-75
2023/03/14 00:35:00;;;;;;;13.40;7.60;;;;;;;9.49;100.00;100164.47;5043502;28;20033;-76
2023/03/14 00:37:26;;;;;;;11.48;8.07;;;;;;;9.51;100.00;100173.75;5044266;28;20042;-75
2023/03/14 00:39:51;;;;;;;12.18;7.50;;;;;;;9.53;100.00;100173.63;5039543;28;20409;-75
2023/03/14 00:42:17;;;;;;;15.50;8.15;;;;;;;9.48;100.00;100148.03;5043853;28;20055;-75
2023/03/14 00:44:42;;;;;;;11.73;6.63;;;;;;;9.42;100.00;100140.84;5043303;28;20437;-75
2023/03/14 00:47:08;;;;;;;10.27;7.38;;;;;;;9.42;100.00;100133.03;5038360;28;20541;-75
2023/03/14 00:49:33;;;;;;;13.80;6.40;;;;;;;9.43;100.00;100124.28;5045794;28;20495;-75
2023/03/14 00:51:59;;;;;;;15.65;7.13;;;;;;;9.44;100.00;100130.31;5039779;28;20037;-76
2023/03/14 00:54:24;;;;;;;12.02;6.90;;;;;;;9.45;100.00;100122.31;5028379;28;20069;-76
2023/03/14 00:56:49;;;;;;;13.07;7.03;;;;;;;9.45;100.00;100117.13;5042549;28;20045;-75
2023/03/14 00:59:15;;;;;;;15.18;7.63;;;;;;;9.48;100.00;100105.63;5045191;28;20129;-75
2023/03/14 01:01:41;;;;;;;15.50;9.93;;;;;;;9.44;100.00;100105.13;5038847;28;20071;-76
2023/03/14 01:04:07;;;;;;;18.15;9.57;;;;;;;9.46;100.00;100112.75;5048276;28;20444;-76
2023/03/14 01:06:33;;;;;;;15.02;9.43;;;;;;;9.48;100.00;100110.81;5047278;28;20032;-75
2023/03/14 01:09:00;;;;;;;18.08;9.68;;;;;;;9.48;100.00;100106.44;5048637;28;20035;-75
2023/03/14 01:11:28;;;;;;;16.08;8.30;;;;;;;9.46;100.00;100097.97;5049086;28;20067;-75
2023/03/14 01:13:55;;;;;;;14.68;8.25;;;;;;;9.40;100.00;100093.38;5043067;28;20059;-75
2023/03/14 01:16:22;;;;;;;15.77;8.80;;;;;;;9.38;100.00;100084.06;5038538;28;20040;-75
2023/03/14 01:18:48;;;;;;;13.10;7.63;;;;;;;9.34;100.00;100080.13;5021816;28;20119;-76
2023/03/14 01:21:23;;;;;;;10.52;7.68;;;;;;;9.32;100.00;100080.28;5035900;28;20064;-75
2023/03/14 01:23:49;;;;;;;11.52;6.65;;;;;;;9.27;100.00;100065.13;5031444;28;20059;-75
2023/03/14 01:26:20;;;;;;;11.10;6.47;;;;;;;9.22;100.00;100048.31;5035634;28;20033;-75
2023/03/14 01:28:47;;;;;;;11.75;6.10;;;;;;;9.19;100.00;100039.03;5043867;28;20029;-75
2023/03/14 01:31:13;;;;;;;13.88;6.85;;;;;;;9.22;100.00;100035.31;5041843;28;20076;-76
2023/03/14 01:33:40;;;;;;;13.00;5.50;;;;;;;9.31;100.00;100048.25;5039926;28;20191;-76
2023/03/14 01:36:06;;;;;;;10.65;4.53;;;;;;;9.42;100.00;100043.81;5042992;28;20028;-75
2023/03/14 01:38:33;;;;;;;11.82;5.10;;;;;;;9.46;100.00;100040.75;5048269;28;20029;-76
2023/03/14 01:40:59;;;;;;;11.20;4.60;;;;;;;9.50;100.00;100042.09;5049853;28;20563;-75
2023/03/14 01:43:25;;;;;;;9.45;4.80;;;;;;;9.52;100.00;100024.56;5050699;28;20111;-76
2023/03/14 01:46:19;;;;;;;12.85;5.50;;;;;;;9.52;100.00;100018.53;5046649;28;20033;-76
2023/03/14 01:49:04;;;;;;;11.68;5.88;;;;;;;9.50;100.00;100021.28;5047118;28;20025;-75
2023/03/14 01:52:05;;;;;;;9.32;6.28;;;;;;;9.46;100.00;100014.75;5056016;28;20123;-77
2023/03/14 01:54:44;;;;;;;11.23;6.82;;;;;;;9.42;100.00;100008.22;5007177;28;20044;-77
2023/03/14 01:57:30;;;;;;;13.82;7.32;;;;;;;9.38;100.00;99993.91;5051431;28;20083;-76
2023/03/14 02:00:03;;;;;;;13.13;7.68;;;;;;;9.41;100.00;99991.00;5050460;28;20503;-77
2023/03/14 02:02:30;;;;;;;19.48;8.15;;;;;;;9.33;100.00;99972.72;5050361;28;20437;-77
2023/03/14 02:04:57;;;;;;;11.50;8.57;;;;;;;9.32;100.00;99968.47;5047946;28;20131;-76
2023/03/14 02:07:41;;;;;;;13.57;9.00;;;;;;;9.29;100.00;99960.97;5043387;28;20036;-76
2023/03/14 02:10:07;;;;;;;17.85;9.57;;;;;;;9.24;100.00;99948.44;5042340;28;20020;-78
2023/03/14 02:12:34;;;;;;;16.95;9.52;;;;;;;9.25;100.00;99939.66;5046002;28;20389;-76
2023/03/14 02:15:00;;;;;;;16.33;9.15;;;;;;;9.27;100.00;99948.13;5042555;28;20029;-77
2023/03/14 02:17:25;;;;;;;16.23;9.18;;;;;;;9.29;100.00;99942.78;5028549;28;20045;-76
2023/03/14 02:20:05;;;;;;;16.92;9.15;;;;;;;9.26;100.00;99940.47;5047299;28;20025;-76
2023/03/14 02:22:33;;;;;;;16.10;9.52;;;;;;;9.23;100.00;99933.78;5048059;28;20098;-76
2023/03/14 02:25:28;;;;;;;16.70;9.98;;;;;;;9.25;100.00;99929.25;5045607;28;20025;-76
2023/03/14 02:27:54;;;;;;;13.75;9.95;;;;;;;9.25;100.00;99924.06;5044250;28;20096;-76
2023/03/14 02:30:23;;;;;;;17.00;9.05;;;;;;;9.23;100.00;99918.19;5048500;28;20524;-76
2023/03/14 02:32:54;;;;;;;11.48;8.40;;;;;;;9.28;100.00;99915.16;5041955;28;20098;-77
2023/03/14 02:35:23;;;;;;;21.65;9.25;;;;;;;9.34;100.00;99905.94;5040848;28;20477;-76
2023/03/14 02:37:55;;;;;;;17.60;9.27;;;;;;;9.33;100.00;99876.53;5035519;28;20025;-76
2023/03/14 02:40:20;;;;;;;17.65;9.18;;;;;;;9.34;100.00;99875.56;5040956;28;20040;-76
2023/03/14 02:42:46;;;;;;;13.98;10.20;;;;;;;9.34;100.00;99877.34;5043085;28;20037;-76
2023/03/14 02:45:11;;;;;;;11.73;8.85;;;;;;;9.35;100.00;99884.19;5043720;28;20039;-77
2023/03/14 02:47:42;;;;;;;13.60;8.15;;;;;;;9.40;100.00;99884.53;5043409;28;20112;-76
2023/03/14 02:50:13;;;;;;;15.38;8.50;;;;;;;9.43;100.00;99874.66;5042541;28;20381;-77
2023/03/14 02:52:39;;;;;;;13.10;7.60;;;;;;;9.47;100.00;99882.94;5035260;28;20029;-76
2023/03/14 02:55:05;;;;;;;15.15;8.93;;;;;;;9.49;100.00;99883.63;5035856;28;20420;-77
2023/03/14 02:57:30;;;;;;;12.02;8.73;;;;;;;9.49;100.00;99881.84;5037465;28;20775;-76
2023/03/14 03:00:00;;;;;;;10.52;8.07;;;;;;;9.49;100.00;99879.22;5035304;28;20052;-76
2023/03/14 03:02:29;;;;;;;16.90;8.70;;;;;;;9.50;100.00;99887.84;5031639;28;20033;-76
2023/03/14 03:04:54;;;;;;;14.98;8.10;;;;;;;9.50;100.00;99895.66;5047750;28;20031;-77
2023/03/14 03:07:20;;;;;;;17.15;8.20;;;;;;;9.51;100.00;99892.09;5043949;28;20028;-76
2023/03/14 03:09:46;;;;;;;15.23;8.30;;;;;;;9.51;100.00;99887.69;5038235;28;20084;-76
2023/03/14 03:12:12;;;;;;;12.93;7.75;;;;;;;9.51;100.00;99887.69;5047922;28;20598;-76
2023/03/14 03:14:37;;;;;;;12.55;8.18;;;;;;;9.52;100.00;99878.13;5051584;28;20041;-76
2023/03/14 03:17:04;;;;;;;14.68;8.38;;;;;;;9.51;100.00;99881.69;5050874;28;20040;-76
2023/03/14 03:19:31;;;;;;;12.60;8.07;;;;;;;9.51;100.00;99882.50;5045378;28;20037;-76
2023/03/14 03:21:57;;;;;;;10.43;8.18;;;;;;;9.50;100.00;99891.25;5049401;28;20441;-76
2023/03/14 03:24:23;;;;;;;15.52;9.52;;;;;;;9.50;100.00;99896.47;5042047;28;20505;-76
2023/03/14 03:26:48;;;;;;;16.55;9.25;;;;;;;9.50;100.00;99890.44;5048426;28;20060;-76
2023/03/14 03:29:14;;;;;;;15.70;8.52;;;;;;;9.47;100.00;99891.56;5040565;28;20020;-77
2023/03/14 03:31:39;;;;;;;13.57;8.77;;;;;;;9.46;100.00;99896.91;5034033;28;20037;-76
2023/03/14 03:34:05;;;;;;;12.75;8.13;;;;;;;9.46;100.00;99900.34;5054643;28;20039;-76
2023/03/14 03:36:30;;;;;;;15.98;9.45;;;;;;;9.45;100.00;99896.09;5053708;28;20043;-76
2023/03/14 03:38:56;;;;;;;17.35;9.13;;;;;;;9.45;100.00;99895.31;5036517;28;20258;-76
2023/03/14 03:41:21;;;;;;;16.27;9.50;;;;;;;9.45;100.00;99895.31;5027144;28;20243;-76
2023/03/14 03:43:47;;;;;;;16.13;10.02;;;;;;;9.45;100.00;99888.28;5026308;28;20068;-76
2023/03/14 03:46:12;;;;;;;14.18;9.52;;;;;;;9.44;100.00;99875.47;5027876;28;20045;-75
2023/03/14 03:48:38;;;;;;;12.82;8.95;;;;;;;9.43;100.00;99877.25;5037688;28;20460;-76
2023/03/14 03:51:03;;;;;;;13.05;8.80;;;;;;;9.46;100.00;99868.31;5047335;28;20580;-75
2023/03/14 03:53:29;;;;;;;13.95;9.95;;;;;;;9.46;100.00;99879.53;5046761;28;20021;-76
2023/03/14 03:55:54;;;;;;;18.88;9.27;;;;;;;9.46;100.00;99874.34;5024115;28;20504;-75
2023/03/14 03:58:20;;;;;;;13.68;9.25;;;;;;;9.48;100.00;99877.59;5043800;28;20055;-75
2023/03/14 04:00:46;;;;;;;13.55;9.60;;;;;;;9.50;100.00;99862.66;5038322;28;20462;-76
2023/03/14 04:03:11;;;;;;;13.63;9.00;;;;;;;9.50;100.00;99861.84;5044304;28;20036;-76
2023/03/14 04:05:37;;;;;;;12.68;7.72;;;;;;;9.52;100.00;99863.31;5047321;28;20033;-76
2023/03/14 04:08:03;;;;;;;14.30;8.48;;;;;;;9.54;100.00;99851.00;5022392;28;20059;-76
2023/03/14 04:10:29;;;;;;;12.73;6.63;;;;;;;9.54;100.00;99856.19;5046259;28;20025;-75
2023/03/14 04:12:54;;;;;;;11.57;7.72;;;;;;;9.57;100.00;99861.09;5040302;28;20033;-75
2023/03/14 04:15:19;;;;;;;16.95;10.77;;;;;;;9.56;100.00;99859.47;5026416;28;20704;-75
2023/03/14 04:17:45;;;;;;;16.30;9.45;;;;;;;9.54;100.00;99851.00;5036883;28;20153;-76
2023/03/14 04:20:11;;;;;;;11.27;6.32;;;;;;;9.54;100.00;99843.19;5026253;28;20411;-76
2023/03/14 04:22:38;;;;;;;8.60;5.22;;;;;;;9.67;100.00;99842.78;5040129;28;20037;-75
2023/03/14 04:25:04;;;;;;;9.00;3.33;;;;;;;9.77;100.00;99834.88;5046841;28;20464;-75
2023/03/14 04:27:31;;;;;;;6.72;2.60;;;;;;;9.96;100.00;99839.84;5037999;28;20110;-76
2023/03/14 04:29:56;;;;;;;5.22;1.73;;;;;;;10.21;100.00;99830.38;5044190;28;20615;-76
2023/03/14 04:32:21;;;;;;;8.15;1.98;;;;;;;10.40;100.00;99831.91;5036359;28;20071;-76
2023/03/14 04:34:47;;;;;;;5.65;0.73;;;;;;;10.51;100.00;99835.00;5026175;28;20036;-75
2023/03/14 04:37:13;;;;;;;7.32;1.80;;;;;;;10.59;100.00;99816.00;5037700;28;20036;-76
2023/03/14 04:39:38;;;;;;;7.25;1.00;;;;;;;10.66;100.00;99822.19;5047253;28;20032;-76
2023/03/14 04:42:04;;;;;;;5.75;0.73;;;;;;;10.70;100.00;99823.50;5034681;28;20063;-75
2023/03/14 04:44:29;;;;;;;4.43;1.13;;;;;;;10.78;100.00;99818.31;5027134;28;20048;-76
2023/03/14 04:46:54;;;;;;;3.60;0.95;;;;;;;10.84;100.00;99822.88;5035271;28;20052;-76
2023/03/14 04:49:20;;;;;;;5.72;0.73;;;;;;;10.88;100.00;99831.97;5042004;28;20753;-76
2023/03/14 04:51:45;;;;;;;10.18;0.75;;;;;;;10.95;100.00;99832.97;5043891;28;20037;-76
2023/03/14 04:54:11;;;;;;;4.85;0.70;;;;;;;10.93;100.00;99821.06;5021268;28;20427;-76
2023/03/14 04:56:36;;;;;;;4.93;0.60;;;;;;;11.00;100.00;99813.41;5049447;28;20112;-76
2023/03/14 04:59:03;;;;;;;8.48;1.02;;;;;;;11.03;100.00;99800.88;5040981;28;20032;-77
2023/03/14 05:01:28;;;;;;;5.60;0.82;;;;;;;11.06;100.00;99802.34;5043943;28;20044;-76
2023/03/14 05:03:54;;;;;;;6.38;0.60;;;;;;;11.22;100.00;99790.13;5050104;28;20079;-77
2023/03/14 05:06:19;;;;;;;4.35;0.65;;;;;;;11.29;100.00;99777.22;5046185;28;20033;-77
2023/03/14 05:08:45;;;;;;;7.68;0.70;;;;;;;11.29;100.00;99767.63;5028935;28;20029;-74
2023/03/14 05:11:12;;;;;;;11.07;1.13;;;;;;;11.35;100.00;99745.25;5043844;28;20044;-76
2023/03/14 05:13:38;;;;;;;6.03;0.73;;;;;;;11.40;100.00;99729.91;5037710;28;20060;-74
2023/03/14 05:16:06;;;;;;;4.35;0.52;;;;;;;11.47;100.00;99738.69;5043178;28;20055;-75
2023/03/14 05:18:31;;;;;;;2.55;0.47;;;;;;;11.41;100.00;99721.09;5042314;28;20028;-74
2023/03/14 05:20:57;;;;;;;7.15;0.50;;;;;;;11.38;100.00;99723.22;5050425;28;20571;-75
2023/03/14 05:23:22;;;;;;;8.50;0.80;;;;;;;11.37;100.00;99751.09;5035153;28;20054;-74
2023/03/14 05:25:48;;;;;;;4.05;0.60;;;;;;;11.25;100.00;99761.09;5057835;28;20033;-74
2023/03/14 05:28:13;;;;;;;7.40;0.70;;;;;;;11.18;100.00;99765.34;5054491;28;20325;-74
2023/03/14 05:30:39;;;;;;;7.15;0.85;;;;;;;11.10;100.00;99782.78;5053343;28;20044;-74
2023/03/14 05:33:04;;;;;;;7.40;0.90;;;;;;;11.03;100.00;99776.59;5032565;28;20040;-74
2023/03/14 05:35:30;;;;;;;9.23;0.90;;;;;;;10.98;100.00;99772.69;5057404;28;20055;-75
2023/03/14 05:37:55;;;;;;;6.03;0.90;;;;;;;10.94;100.00;99767.97;5043547;28;20060;-74
2023/03/14 05:40:21;;;;;;;7.28;1.23;;;;;;;10.87;100.00;99752.16;5054664;28;20396;-76
2023/03/14 05:42:46;;;;;;;5.57;1.38;;;;;;;10.89;100.00;99752.81;5046906;28;20123;-74
2023/03/14 05:45:11;;;;;;;7.35;1.13;;;;;;;10.87;100.00;99746.94;5038011;28;20405;-75
2023/03/14 05:47:37;;;;;;;12.38;0.90;;;;;;;10.79;100.00;99731.34;5056465;28;20044;-76
2023/03/14 05:50:02;;;;;;;7.20;0.70;;;;;;;10.77;100.00;99729.88;5062696;28;20079;-75
2023/03/14 05:52:28;;;;;;;7.97;0.70;;;;;;;10.76;100.00;99723.03;5037022;28;20385;-75
2023/03/14 05:54:53;;;;;;;6.78;0.80;;;;;;;10.75;100.00;99729.22;5050375;28;20047;-75
2023/03/14 05:57:19;;;;;;;6.80;1.05;;;;;;;10.71;100.00;99707.91;5031963;28;20057;-75
2023/03/14 05:59:44;;;;;;;8.05;0.90;;;;;;;10.70;100.00;99680.22;5033668;28;20088;-75
2023/03/14 06:02:09;;;;;;;7.45;1.15;;;;;;;10.72;100.00;99661.81;5049968;28;20033;-76
2023/03/14 06:04:35;;;;;;;7.88;1.20;;;;;;;10.85;100.00;99673.38;5046994;28;20056;-75
2023/03/14 06:07:00;;;;;;;9.48;1.00;;;;;;;10.82;100.00;99680.69;5046143;28;20032;-74
2023/03/14 06:09:26;;;;;;;7.25;0.93;;;;;;;10.70;100.00;99708.06;5045455;28;20037;-75
2023/03/14 06:11:51;;;;;;;5.47;1.73;;;;;;;10.52;100.00;99716.03;5045419;28;20054;-74
2023/03/14 06:14:17;;;;;;;6.95;2.05;;;;;;;10.37;100.00;99712.44;5043854;28;20029;-74
2023/03/14 06:16:43;;;;;;;8.30;2.03;;;;;;;10.26;100.00;99690.94;5043124;28;20035;-75
2023/03/14 06:19:09;;;;;;;10.63;1.50;;;;;;;10.17;100.00;99681.47;5039374;28;20037;-74
2023/03/14 06:21:35;;;;;;;8.05;0.90;;;;;;;10.10;100.00;99684.88;5041456;28;20443;-74
2023/03/14 06:24:00;;;;;;;6.85;0.95;;;;;;;10.05;100.00;99672.34;5025026;28;20040;-74
2023/03/14 06:26:28;;;;;;;10.65;1.23;;;;;;;10.05;100.00;99661.09;5045835;28;20484;-73
2023/03/14 06:28:54;;;;;;;8.32;0.77;;;;;;;10.08;100.00;99671.19;5034752;28;20052;-73
2023/03/14 06:31:20;;;;;;;14.75;0.93;;;;;;;10.07;100.00;99654.78;5042749;28;20067;-73
2023/03/14 06:33:46;;;;;;;3.92;0.75;;;;;;;10.06;100.00;99645.34;5042672;28;20059;-73
2023/03/14 06:36:12;;;;;;;12.68;0.82;;;;;;;10.07;100.00;99659.97;5048325;28;20418;-73
2023/03/14 06:38:41;;;;;;;4.20;1.25;;;;;;;10.06;100.00;99666.16;5038761;28;20068;-74
2023/03/14 06:41:07;;;;;;;9.43;0.93;;;;;;;10.06;100.00;99655.75;5045340;28;20037;-73
2023/03/14 06:43:33;;;;;;;8.85;1.30;;;;;;;10.04;100.00;99643.88;5049126;28;20025;-73
2023/03/14 06:45:59;;;;;;;3.65;0.77;;;;;;;10.04;100.00;99647.28;5044179;28;20040;-74
2023/03/14 06:48:24;;;;;;;8.18;1.23;;;;;;;10.06;100.00;99660.13;5040135;28;20041;-73
2023/03/14 06:50:50;;;;;;;10.10;1.23;;;;;;;10.08;100.00;99648.59;5042855;28;20028;-74
2023/03/14 06:53:16;;;;;;;6.20;0.90;;;;;;;10.12;100.00;99649.91;5047180;28;20142;-73
2023/03/14 06:55:43;;;;;;;7.20;0.90;;;;;;;10.10;100.00;99636.22;5046376;28;20450;-74
2023/03/14 06:58:09;;;;;;;7.32;1.17;;;;;;;10.10;100.00;99633.63;5047721;28;20127;-73
2023/03/14 07:00:35;;;;;;;6.57;0.70;;;;;;;10.15;100.00;99633.97;5042207;28;20029;-74
2023/03/14 07:03:01;;;;;;;6.15;0.93;;;;;;;10.17;100.00;99633.81;5046211;28;20029;-74
2023/03/14 07:05:27;;;;;;;8.20;0.88;;;;;;;10.17;100.00;99639.81;5038717;28;20349;-74
2023/03/14 07:07:53;;;;;;;4.60;0.80;;;;;;;10.16;100.00;99640.78;5036460;28;20056;-74
2023/03/14 07:10:19;;;;;;;3.25;0.57;;;;;;;10.14;100.00;99623.72;5040719;28;20055;-73
2023/03/14 07:12:45;;;;;;;5.25;0.57;;;;;;;10.15;100.00;99633.97;5036399;28;20094;-74
2023/03/14 07:15:11;;;;;;;6.57;0.70;;;;;;;10.15;100.00;99636.56;5040579;28;20470;-74
2023/03/14 07:17:37;;;;;;;7.32;0.50;;;;;;;10.15;100.00;99620.13;5040162;28;20029;-74
2023/03/14 07:20:04;;;;;;;6.38;0.65;;;;;;;10.20;100.00;99613.50;5043916;28;20044;-74
2023/03/14 07:22:30;;;;;;;4.82;0.60;;;;;;;10.20;100.00;99599.66;5041386;28;20037;-74
2023/03/14 07:24:56;;;;;;;6.88;0.63;;;;;;;10.21;100.00;99596.09;5043672;28;20461;-75
2023/03/14 07:27:21;;;;;;;2.88;0.60;;;;;;;10.21;100.00;99603.91;5041721;28;20029;-74
2023/03/14 07:29:47;;;;;;;5.38;0.80;;;;;;;10.21;100.00;99599.50;5040104;28;20040;-75
2023/03/14 07:32:14;;;;;;;7.18;0.98;;;;;;;10.28;100.00;99584.06;5041265;28;20048;-75
2023/03/14 07:34:43;;;;;;;2.78;0.65;;;;;;;10.30;100.00;99587.31;5044392;28;20104;-69
2023/03/14 07:37:09;;;;;;;5.47;0.93;;;;;;;10.28;100.00;99597.06;5047193;28;20164;-75
2023/03/14 07:39:35;;;;;;;6.15;0.57;;;;;;;10.26;100.00;99588.59;5037694;28;20025;-75
2023/03/14 07:42:00;;;;;;;4.10;0.50;;;;;;;10.26;100.00;99591.22;5042440;28;20025;-75
2023/03/14 07:44:26;;;;;;;9.05;1.15;;;;;;;10.23;100.00;99579.34;5024397;28;20043;-75
2023/03/14 07:46:52;;;;;;;6.22;0.90;;;;;;;10.23;100.00;99581.13;5041570;28;20374;-75
2023/03/14 07:49:18;;;;;;;4.72;0.93;;;;;;;10.23;100.00;99562.91;5040943;28;20036;-75
2023/03/14 07:51:46;;;;;;;3.95;0.40;;;;;;;10.18;100.00;99552.94;5044070;28;20032;-75
2023/03/14 07:54:12;;;;;;;7.25;0.35;;;;;;;10.13;100.00;99544.81;5040726;28;20055;-75
2023/03/14 07:56:37;;;;;;;5.07;0.73;;;;;;;10.13;100.00;99544.81;5038919;28;20055;-75
2023/03/14 07:59:03;;;;;;;5.68;0.95;;;;;;;10.14;100.00;99545.63;5031225;28;20041;-75
2023/03/14 08:01:29;;;;;;;6.40;0.85;;;;;;;10.14;100.00;99541.22;5021019;28;20091;-75
2023/03/14 08:03:54;;;;;;;7.38;1.83;;;;;;;10.15;100.00;99542.03;5021123;28;20022;-75
2023/03/14 08:06:20;;;;;;;7.65;1.52;;;;;;;10.14;100.00;99538.63;5020794;28;20029;-75
2023/03/14 08:08:45;;;;;;;8.18;0.98;;;;;;;10.14;100.00;99556.03;5020006;28;20488;-75
2023/03/14 08:11:10;;;;;;;8.25;1.25;;;;;;;10.14;100.00;99556.84;5006210;28;20041;-76
2023/03/14 08:13:37;;;;;;;3.97;0.98;;;;;;;10.14;100.00;99563.84;5022564;28;20026;-76
2023/03/14 08:16:03;;;;;;;6.05;0.70;;;;;;;10.11;100.00;99572.78;4989686;28;20033;-77
2023/03/14 08:18:29;;;;;;;4.03;0.50;;;;;;;10.09;100.00;99592.97;5016671;28;20046;-75
2023/03/14 08:20:55;;;;;;;5.40;1.10;;;;;;;10.10;100.00;99602.41;5017377;28;20094;-75
2023/03/14 08:23:20;;;;;;;8.80;0.77;;;;;;;10.08;100.00;99609.56;5020723;28;20116;-74
2023/03/14 08:25:49;;;;;;;8.70;0.95;;;;;;;10.06;100.00;99615.91;5017390;28;20151;-75
2023/03/14 08:28:14;;;;;;;7.85;0.70;;;;;;;10.06;100.00;99618.50;5008422;28;20041;-76
2023/03/14 08:30:39;;;;;;;7.05;1.20;;;;;;;10.04;100.00;99605.66;5023845;28;20051;-76
2023/03/14 08:33:05;;;;;;;7.50;1.65;;;;;;;10.06;100.00;99611.50;5024522;28;20036;-75
2023/03/14 08:35:30;;;;;;;5.50;0.70;;;;;;;10.09;100.00;99605.16;5029277;28;20037;-75
2023/03/14 08:37:56;;;;;;;8.52;2.08;;;;;;;10.09;100.00;99599.97;5026057;28;20138;-75
2023/03/14 08:40:21;;;;;;;16.15;3.28;;;;;;;10.07;100.00;99610.53;5031933;28;20038;-75
2023/03/14 08:42:47;;;;;;;10.50;2.65;;;;;;;10.04;100.00;99613.44;5022370;28;20140;-75
2023/03/14 08:45:16;;;;;;;10.70;2.83;;;;;;;10.05;100.00;99599.47;5034910;28;20045;-74
2023/03/14 08:47:42;;;;;;;6.05;2.15;;;;;;;10.05;100.00;99596.03;5020364;28;20500;-75
2023/03/14 08:50:09;;;;;;;8.93;2.65;;;;;;;10.07;100.00;99592.31;5020542;28;20176;-75
2023/03/14 08:52:35;;;;;;;15.27;2.97;;;;;;;10.06;100.00;99582.88;5025799;28;20067;-75
2023/03/14 08:55:00;;;;;;;9.60;2.40;;;;;;;10.07;100.00;99579.28;5029019;28;20057;-74
2023/03/14 08:57:29;;;;;;;9.50;2.63;;;;;;;10.09;100.00;99579.13;5023885;28;20038;-74
2023/03/14 08:59:55;;;;;;;14.18;3.53;;;;;;;10.06;100.00;99589.88;5020455;28;20033;-75
2023/03/14 09:02:22;;;;;;;13.32;3.90;;;;;;;10.09;100.00;99594.75;5044462;28;20495;-75
2023/03/14 09:04:47;;;;;;;7.57;3.33;;;;;;;10.10;100.00;99602.41;5045903;28;20055;-75
2023/03/14 09:07:12;;;;;;;11.13;3.10;;;;;;;10.08;100.00;99590.53;5029073;28;20037;-75
2023/03/14 09:09:38;;;;;;;9.05;3.00;;;;;;;10.04;100.00;99589.22;5045842;28;20052;-75
2023/03/14 09:12:04;;;;;;;12.20;2.83;;;;;;;9.97;100.00;99589.84;5040782;28;20035;-75
2023/03/14 09:14:31;;;;;;;13.10;2.92;;;;;;;9.94;100.00;99581.56;5043136;28;20465;-75
2023/03/14 09:16:57;;;;;;;12.20;4.00;;;;;;;9.94;100.00;99591.97;5047323;28;20115;-74
2023/03/14 09:19:22;;;;;;;17.65;6.25;;;;;;;9.96;100.00;99593.44;5047930;28;20473;-74
2023/03/14 09:21:48;;;;;;;12.57;4.82;;;;;;;9.99;100.00;99569.69;5047097;28;20094;-75
2023/03/14 09:24:14;;;;;;;20.92;7.88;;;;;;;10.05;100.00;99570.84;5043058;28;20033;-75
2023/03/14 09:26:39;;;;;;;17.02;5.60;;;;;;;10.10;100.00;99562.53;5044322;28;20032;-76
2023/03/14 09:29:05;;;;;;;20.80;6.90;;;;;;;10.15;100.00;99568.06;5043188;28;20033;-75
2023/03/14 09:31:30;;;;;;;15.98;7.05;;;;;;;10.27;100.00;99575.44;5046074;28;20040;-76
2023/03/14 09:33:56;;;;;;;17.70;9.07;;;;;;;10.35;100.00;99568.59;5044657;28;20393;-76
2023/03/14 09:36:21;;;;;;;13.45;5.10;;;;;;;10.24;100.00;99570.53;5051634;28;20028;-76
2023/03/14 09:38:47;;;;;;;12.35;4.57;;;;;;;10.20;100.00;99581.44;5054112;28;20033;-77
2023/03/14 09:41:21;;;;;;;13.73;5.22;;;;;;;10.22;100.00;99564.69;5063829;28;20036;-76
2023/03/14 09:43:52;;;;;;;10.85;4.80;;;;;;;10.21;100.00;99565.66;5058624;28;20031;-76
2023/03/14 09:46:18;;;;;;;13.32;4.63;;;;;;;10.24;100.00;99573.16;5044496;28;20546;-76
2023/03/14 09:48:44;;;;;;;16.70;6.32;;;;;;;10.32;100.00;99580.16;5028675;28;20075;-76
2023/03/14 09:51:21;;;;;;;9.32;5.32;;;;;;;10.36;100.00;99572.81;5050522;28;20099;-75
2023/03/14 09:53:48;;;;;;;17.27;6.07;;;;;;;10.38;100.00;99571.69;5044164;28;20037;-74
2023/03/14 09:56:18;;;;;;;13.63;6.28;;;;;;;10.44;100.00;99567.56;5047177;28;20036;-75
2023/03/14 09:58:48;;;;;;;17.23;6.80;;;;;;;10.49;100.00;99565.28;5044723;28;20045;-75
2023/03/14 10:01:18;;;;;;;8.98;5.72;;;;;;;10.51;100.00;99563.34;5031017;28;20044;-75
2023/03/14 10:03:46;;;;;;;15.70;6.50;;;;;;;10.45;100.00;99564.00;5057616;28;20029;-75
2023/03/14 10:06:12;;;;;;;14.70;5.72;;;;;;;10.46;100.00;99555.19;5058254;28;20032;-75
2023/03/14 10:08:43;;;;;;;12.43;6.05;;;;;;;10.45;100.00;99558.78;5056951;28;20037;-75
2023/03/14 10:11:15;;;;;;;11.88;5.90;;;;;;;10.43;100.00;99561.56;5048808;28;20091;-75
2023/03/14 10:14:05;;;;;;;10.45;3.00;;;;;;;10.37;100.00;99571.84;5051335;28;20068;-75
2023/03/14 10:16:36;;;;;;;10.07;2.58;;;;;;;10.32;100.00;99561.91;5023724;28;20055;-74
2023/03/14 10:19:15;;;;;;;7.65;2.33;;;;;;;10.25;100.00;99561.75;5048712;28;20477;-75
2023/03/14 10:21:43;;;;;;;5.75;1.58;;;;;;;10.28;100.00;99552.81;5048673;28;20039;-73
2023/03/14 10:24:26;;;;;;;14.63;5.90;;;;;;;10.27;100.00;99545.97;5035196;28;20461;-74
2023/03/14 10:27:01;;;;;;;11.82;4.80;;;;;;;10.25;100.00;99553.94;5039310;28;20492;-74
2023/03/14 10:29:27;;;;;;;13.40;5.13;;;;;;;10.27;100.00;99544.19;5034624;28;20106;-73
2023/03/14 10:32:00;;;;;;;19.58;8.05;;;;;;;10.29;100.00;99544.03;5043119;28;20061;-73
2023/03/14 10:34:32;;;;;;;19.27;9.55;;;;;;;10.27;100.00;99545.97;5037475;28;20654;-74
2023/03/14 10:37:08;;;;;;;16.33;9.15;;;;;;;10.29;100.00;99533.59;5027857;28;20129;-74
2023/03/14 10:39:53;;;;;;;17.50;9.20;;;;;;;10.33;100.00;99534.09;5044261;28;20037;-74
2023/03/14 10:42:46;;;;;;;15.75;8.57;;;;;;;10.41;100.00;99531.44;5044496;28;20040;-73
2023/03/14 10:45:32;;;;;;;16.33;6.57;;;;;;;10.46;100.00;99543.00;5041536;28;20041;-74
2023/03/14 10:48:07;;;;;;;17.17;5.07;;;;;;;10.47;100.00;99541.19;5040477;28;20033;-74
2023/03/14 10:50:32;;;;;;;11.55;5.38;;;;;;;10.41;100.00;99540.06;5042506;28;20460;-73
2023/03/14 10:53:05;;;;;;;10.60;3.40;;;;;;;10.30;100.00;99541.25;5036101;28;20112;-74
2023/03/14 10:55:49;;;;;;;6.88;1.33;;;;;;;10.13;100.00;99539.59;5043382;28;20048;-74
2023/03/14 10:58:39;;;;;;;4.00;0.68;;;;;;;10.07;100.00;99544.66;5040849;28;20378;-73
2023/03/14 11:01:32;;;;;;;4.82;0.85;;;;;;;10.00;100.00;99539.28;5043851;28;20115;-73
2023/03/14 11:04:36;;;;;;;2.95;0.60;;;;;;;9.96;100.00;99543.19;5047719;28;20028;-74
2023/03/14 11:07:14;;;;;;;4.88;0.82;;;;;;;9.94;100.00;99542.53;5053564;28;20025;-73
2023/03/14 11:10:03;;;;;;;9.00;1.58;;;;;;;9.96;100.00;99532.78;5054884;28;20031;-72
2023/03/14 11:12:46;;;;;;;3.90;0.80;;;;;;;9.89;100.00;99522.22;5048036;28;20021;-73
2023/03/14 11:15:34;;;;;;;10.50;0.93;;;;;;;9.92;100.00;99532.28;5045775;28;20029;-74
2023/03/14 11:18:21;;;;;;;6.82;0.80;;;;;;;9.97;100.00;99524.81;5031991;28;20537;-73
2023/03/14 11:21:11;;;;;;;7.38;1.10;;;;;;;9.97;100.00;99526.59;5050802;28;20076;-74
2023/03/14 11:24:14;;;;;;;5.85;0.60;;;;;;;10.00;100.00;99518.47;5058377;28;20088;-74
2023/03/14 11:26:45;;;;;;;6.47;0.93;;;;;;;9.98;100.00;99525.63;5000014;28;20035;-74